Date,TemperatureHighF,TemperatureAvgF,TemperatureLowF,DewpointHighF,DewpointAvgF,DewpointLowF,HumidityHigh,HumidityAvg,HumidityLow,PressureMaxIn,PressureMinIn,WindSpeedMaxMPH,WindSpeedAvgMPH,GustSpeedMaxMPH,PrecipitationSumIn
2014-1-1,7.9,4.1,-0.3,1.0,-3.3,-8.4,74,71,67,30.47,30.38,16,5,16,0.00
2014-1-2,10.7,7.7,5.7,2.6,1.1,-0.6,80,74,64,30.44,30.34,16,5,16,0.00
2014-1-3,17.7,13.5,6.7,12.9,7.7,-1.0,81,77,70,30.36,29.85,23,5,23,0.00
2014-1-4,30.8,21.7,14.7,25.7,14.4,7.0,81,73,69,30.14,29.93,15,5,15,0.02
2014-1-5,14.7,4.1,-8.5,6.9,-5.6,-17.3,72,63,52,30.25,30.13,25,6,25,0.00
2014-1-6,-8.4,-13.4,-18.0,-16.2,-21.8,-27.1,73,65,59,30.31,30.18,24,6,24,0.00
2014-1-10,35.4,31.9,26.1,34.4,30.7,24.6,96,95,94,30.05,29.48,20,5,20,0.12
2014-1-11,35.1,31.6,27.9,34.1,28.9,24.3,96,90,85,29.78,29.43,19,5,19,0.01
2014-1-12,39.9,33.0,25.2,33.1,28.5,22.1,92,84,71,29.79,29.55,22,2,22,0.01
2014-1-13,40.5,33.8,23.6,33.7,28.5,18.6,90,81,67,29.74,29.53,16,2,16,0.00
2014-1-14,34.2,26.1,15.6,31.9,22.7,10.2,93,87,79,29.96,29.52,26,7,26,0.00
2014-1-15,18.2,12.9,10.3,13.5,7.1,4.2,82,77,69,30.13,29.72,17,3,17,0.00
2014-1-16,34.2,23.7,11.8,31.0,18.5,4.2,91,80,67,29.76,29.45,24,4,24,0.07
2014-1-17,18.4,13.6,9.4,12.5,7.7,2.8,83,77,70,30.01,29.75,19,4,19,0.00
2014-1-18,16.3,8.2,-0.2,11.7,4.1,-3.9,86,83,78,29.98,29.81,14,2,14,0.00
2014-1-19,33.8,25.1,0.2,28.6,19.7,-3.2,89,80,69,29.90,29.53,11,3,14,0.00
2014-1-20,33.9,19.3,6.0,28.7,14.3,-3.6,87,81,63,30.29,29.65,19,5,19,0.00
2014-1-21,5.9,0.0,-5.3,-2.7,-7.8,-10.9,78,69,59,30.43,30.22,18,3,18,0.00
2014-1-22,11.1,4.1,-2.4,5.4,-2.8,-11.1,80,72,61,30.30,29.96,24,5,24,0.00
2014-1-23,5.9,-1.0,-8.0,-4.7,-9.3,-14.5,73,67,59,30.66,30.30,24,6,24,0.00
2014-1-24,30.7,13.2,-10.5,27.7,6.0,-16.2,89,73,62,30.54,29.45,20,4,21,0.00
2014-1-25,31.9,14.0,4.6,28.5,1.0,-6.3,89,56,37,29.89,29.44,36,8,36,0.00
2014-1-26,23.6,11.3,2.4,19.5,5.9,-5.8,92,79,61,29.92,29.42,33,6,33,0.00
2014-1-27,2.3,-5.4,-10.8,-5.6,-14.6,-18.8,74,64,54,30.49,29.92,26,6,26,0.00
2014-1-28,2.4,-5.7,-14.5,-8.2,-13.8,-20.5,76,67,59,30.49,30.25,16,3,16,0.00
2014-1-29,21.9,10.0,-3.7,11.6,0.2,-10.3,74,65,50,30.26,29.89,13,2,13,0.00
2014-1-30,30.3,24.7,15.2,27.0,17.9,7.8,89,76,65,29.99,29.58,18,4,18,0.00
2014-1-31,15.2,7.8,1.5,7.8,0.7,-3.8,82,73,61,30.21,29.99,10,1,10,0.00
2014-2-1,19.9,12.9,3.2,15.9,8.5,-1.3,86,82,77,30.18,30.01,13,2,13,0.00
2014-2-2,15.7,6.1,-7.5,8.8,-0.3,-12.8,86,75,58,30.40,30.18,12,1,12,0.00
2014-2-3,19.3,3.8,-13.0,8.0,-3.2,-17.7,84,73,56,30.44,30.37,10,1,10,0.01
2014-2-4,17.1,9.9,-2.0,11.3,4.2,-6.2,85,78,70,30.51,30.28,17,2,17,0.00
2014-2-5,18.3,13.8,2.4,11.7,7.8,-2.9,86,77,66,30.50,30.25,20,5,20,0.00
2014-2-6,7.0,-0.4,-6.4,-3.0,-7.1,-10.7,81,73,60,30.49,30.38,17,3,17,0.00
2014-2-7,13.6,3.8,-5.9,0.8,-4.2,-11.1,79,69,53,30.40,30.32,19,2,19,0.00
2014-2-8,12.8,3.7,-11.1,8.6,-0.5,-15.8,91,82,75,30.36,30.19,9,1,9,0.00
2014-2-9,17.0,7.1,-1.9,8.6,0.7,-8.5,86,75,62,30.40,30.19,11,3,15,0.00
2014-2-10,8.9,-1.0,-12.7,-2.9,-9.3,-18.4,80,68,57,30.57,30.39,15,2,15,0.00
2014-2-11,11.1,-1.9,-15.7,-1.1,-9.3,-20.6,81,70,54,30.60,30.40,11,1,11,0.00
2014-2-12,18.5,9.9,1.3,13.6,4.8,-5.3,87,79,72,30.40,30.03,7,1,8,0.00
2014-2-13,30.3,21.3,10.4,25.7,16.2,7.3,89,80,72,30.03,29.52,27,4,27,0.01
2014-2-14,21.8,14.0,6.7,11.5,6.8,0.0,92,73,62,30.04,29.66,14,4,17,0.00
2014-2-15,18.4,7.6,-7.0,13.2,1.6,-11.5,92,76,64,30.13,30.00,9,1,13,0.00
2014-2-16,20.3,16.3,11.4,13.9,10.9,5.6,89,79,69,30.32,30.01,13,4,13,0.00
2014-2-17,24.6,22.1,16.8,22.0,19.1,11.9,93,88,79,30.28,29.74,27,7,27,0.00
2014-2-18,44.0,30.8,13.8,35.1,25.9,11.2,92,82,66,29.93,29.60,21,3,21,0.22
2014-2-19,46.2,35.8,28.7,32.0,26.6,23.9,83,70,47,29.94,29.67,12,3,12,0.00
2014-2-20,40.4,34.8,31.5,39.3,32.3,26.5,96,90,79,29.89,29.06,27,9,27,0.45
2014-2-21,34.7,22.6,17.8,30.9,15.5,11.2,86,74,63,29.81,29.16,28,9,28,0.00
2014-2-22,29.5,20.0,12.4,16.1,10.4,5.5,76,66,51,30.13,29.81,16,4,16,0.00
2014-2-23,24.1,14.7,7.9,10.4,5.3,1.3,76,66,53,30.27,30.13,19,4,19,0.00
2014-2-24,22.6,14.6,6.3,8.6,4.6,0.3,77,65,51,30.32,30.25,21,4,21,0.00
2014-2-25,15.3,9.2,1.3,5.1,-0.8,-7.1,84,64,48,30.31,30.19,19,6,19,0.00
2014-2-26,15.6,4.7,-5.7,10.5,-4.4,-12.0,81,66,49,30.32,29.68,31,5,31,0.00
2014-2-27,10.3,1.5,-7.9,-1.2,-12.2,-15.4,71,53,38,30.25,29.75,27,5,27,0.00
2014-2-28,21.1,8.5,-10.6,15.7,1.1,-16.7,85,71,61,30.26,30.03,20,3,20,0.00
2014-3-1,18.8,11.0,4.5,16.1,4.3,-4.1,92,74,63,30.46,30.11,13,5,19,0.00
2014-3-2,7.3,2.2,-2.3,-4.2,-11.7,-16.0,68,52,39,30.58,30.46,18,5,18,0.00
2014-3-3,16.5,5.6,-8.7,2.2,-6.9,-16.7,69,56,43,30.62,30.40,7,1,9,0.00
2014-3-4,21.2,15.3,9.2,12.3,8.4,2.0,87,74,60,30.40,30.23,10,2,10,0.07
2014-3-5,18.9,13.7,1.1,11.9,8.3,-3.5,88,79,64,30.54,30.32,18,5,18,0.00
2014-3-6,25.2,12.1,-5.7,16.0,6.1,-9.8,85,77,66,30.51,30.09,11,2,14,0.04
2014-3-7,43.6,31.3,14.6,32.4,24.4,10.1,86,76,60,30.08,29.86,13,2,13,0.05
2014-3-8,33.8,28.0,14.5,28.9,20.5,9.7,85,74,57,30.27,30.06,20,4,20,0.00
2014-3-9,39.7,27.5,11.3,33.6,20.8,7.9,89,76,62,30.26,29.76,15,2,15,0.00
2014-3-10,57.2,45.3,34.1,39.6,35.6,30.3,89,70,51,29.76,29.60,12,2,12,0.00
2014-3-11,42.2,39.0,33.3,36.8,33.9,31.0,92,82,69,29.83,29.66,14,2,14,0.03
2014-3-12,35.0,24.7,11.7,31.8,17.8,6.4,88,75,59,30.15,29.81,16,5,18,0.00
2014-3-13,38.9,25.8,8.9,35.0,20.1,4.8,91,79,66,30.15,29.76,14,1,14,0.00
2014-3-14,48.6,41.6,36.1,35.7,32.9,28.2,89,71,56,29.84,29.53,30,5,30,0.00
2014-3-15,36.0,31.6,26.4,28.8,21.9,19.4,82,68,56,30.35,29.84,20,4,20,0.00
2014-3-16,26.3,18.0,10.4,21.1,9.8,3.3,81,70,59,30.48,30.22,25,8,25,0.00
2014-3-17,34.9,24.4,12.1,24.4,15.7,7.5,84,70,52,30.23,29.76,18,4,18,0.00
2014-3-18,43.7,35.7,27.9,34.0,29.7,24.3,88,79,65,29.86,29.70,24,7,24,0.03
2014-3-19,38.2,34.6,32.8,34.9,31.0,23.6,95,87,68,29.99,29.60,23,5,23,0.14
2014-3-20,43.6,34.8,26.4,28.7,26.0,21.8,87,71,50,30.07,29.98,14,2,14,0.00
2014-3-21,48.1,36.7,22.7,40.6,30.2,19.8,90,78,65,30.03,29.72,26,4,26,0.00
2014-3-22,38.4,30.7,19.8,28.9,20.1,7.7,81,65,46,30.42,29.91,23,7,23,0.00
2014-3-23,28.3,20.7,13.6,11.3,7.8,5.2,71,58,43,30.52,30.40,18,5,18,0.00
2014-3-24,35.2,25.5,15.5,24.9,15.1,7.6,88,66,44,30.43,30.07,20,3,20,0.00
2014-3-25,26.3,20.1,15.4,22.1,8.9,4.2,88,62,46,30.28,30.06,25,6,25,0.00
2014-3-26,37.1,24.6,8.2,25.7,15.4,4.1,89,68,54,30.33,29.90,30,4,30,0.00
2014-3-27,44.5,38.3,34.0,43.4,34.8,24.7,96,88,60,29.90,29.40,18,4,18,0.32
2014-3-28,40.7,35.4,31.8,39.4,30.8,27.9,95,83,71,30.20,29.42,23,5,23,0.07
2014-3-29,43.7,36.0,29.6,30.9,28.2,24.3,90,74,58,30.31,30.21,17,3,17,0.00
2014-3-30,53.6,40.6,26.0,41.0,31.6,20.8,82,71,59,30.28,29.98,18,2,18,0.00
2014-3-31,61.8,50.8,40.2,46.9,40.4,35.4,85,68,54,30.00,29.58,32,6,32,0.00
2014-4-1,54.1,35.4,25.9,45.6,25.9,19.5,79,68,54,30.11,29.57,28,7,28,0.00
2014-4-2,47.9,35.8,21.7,32.9,26.0,18.4,91,69,49,30.23,30.11,23,5,23,0.00
2014-4-3,38.0,36.5,34.7,32.8,28.2,24.0,89,72,63,30.11,29.67,31,11,31,0.00
2014-4-4,38.0,34.8,33.3,33.7,31.0,27.4,95,86,74,30.03,29.48,35,7,35,0.25
2014-4-5,52.5,39.5,25.2,32.6,27.6,21.9,90,65,40,30.20,30.02,8,2,12,0.00
2014-4-6,43.4,32.7,30.2,34.9,27.9,25.8,87,82,71,30.13,30.09,8,0,8,0.00
2014-4-12,58.4,50.9,45.8,50.0,45.0,39.8,93,81,66,29.83,29.66,24,8,24,0.09
2014-4-13,50.7,47.2,42.7,49.2,45.9,40.8,100,95,92,29.79,29.51,29,5,29,2.48
2014-4-14,42.7,32.7,25.3,40.7,28.8,22.5,100,86,74,30.08,29.49,30,7,30,0.39
2014-4-15,36.1,26.7,12.2,23.2,17.8,9.4,95,71,49,30.23,30.06,17,2,17,0.04
2014-4-16,49.7,39.9,27.8,35.0,28.5,20.0,77,64,54,30.25,30.04,29,9,29,0.00
2014-4-17,54.2,45.5,35.2,41.4,36.0,30.8,84,70,58,30.31,29.99,23,5,23,0.00
2014-4-18,53.7,41.1,27.7,35.0,31.0,25.1,91,70,41,30.41,30.30,20,3,20,0.00
2014-4-19,65.5,48.8,33.0,43.7,34.9,26.3,77,60,41,30.40,30.16,20,6,20,0.00
2014-4-20,75.8,60.5,49.7,54.3,47.2,40.5,88,63,42,30.18,29.95,15,2,15,0.03
2014-4-21,68.7,60.3,53.1,59.8,53.4,34.8,92,79,46,29.96,29.77,30,2,30,0.02
2014-4-22,56.9,48.0,38.6,36.8,31.8,28.2,70,55,36,30.11,29.86,24,6,24,0.00
2014-4-23,54.7,42.9,28.7,38.1,30.8,25.0,88,65,40,30.19,30.02,19,3,19,0.13
2014-4-24,54.7,44.9,34.8,47.8,40.2,29.9,95,84,71,30.12,29.64,25,6,25,0.40
2014-4-25,66.1,53.5,41.9,48.5,41.6,36.3,95,68,34,29.84,29.68,27,4,27,0.05
2014-4-26,52.2,44.4,37.0,39.9,34.5,30.3,80,68,56,30.07,29.84,25,8,25,0.00
2014-4-27,50.7,43.9,40.3,40.5,36.6,30.8,89,76,54,30.08,29.83,37,12,37,0.23
2014-4-28,48.5,44.6,41.1,42.1,39.6,36.5,91,83,69,29.85,29.59,33,15,33,0.91
2014-4-29,49.5,44.9,40.5,48.1,43.0,38.6,95,93,86,29.62,29.49,17,6,17,0.22
2014-4-30,48.2,45.3,41.9,46.5,42.1,37.7,96,89,79,29.74,29.62,14,2,14,0.02
2014-5-1,50.2,43.9,39.3,44.4,40.4,36.8,93,88,75,29.81,29.63,16,3,16,0.02
2014-5-2,53.7,47.6,44.2,45.0,42.5,40.5,91,83,70,29.81,29.62,17,3,17,0.03
2014-5-3,62.2,53.0,43.6,43.9,40.7,35.6,94,66,39,29.88,29.62,28,6,28,0.00
2014-5-4,57.9,50.8,43.6,35.8,32.0,24.3,70,50,30,30.08,29.88,16,4,16,0.00
2014-5-5,58.4,49.6,42.3,39.1,35.4,31.4,75,59,41,30.06,29.95,24,8,24,0.00
2014-5-6,63.0,51.2,38.5,44.5,38.2,31.7,80,62,47,30.04,29.89,22,9,26,0.00
2014-5-7,60.7,53.7,48.0,50.7,44.8,35.8,85,72,62,29.90,29.77,24,9,24,0.00
2014-5-8,80.5,67.6,50.6,67.5,59.4,47.6,95,76,54,29.79,29.65,17,2,17,0.01
2014-5-9,69.4,60.0,46.0,61.6,52.2,41.1,90,76,64,29.83,29.56,22,4,22,0.02
2014-5-10,72.8,58.0,38.9,50.5,44.7,36.5,94,65,39,29.93,29.83,11,2,12,0.00
2014-5-11,77.0,65.5,53.9,65.2,56.2,44.8,90,73,57,29.90,29.81,17,3,17,0.41
2014-5-12,75.5,67.5,63.3,70.1,64.7,60.8,96,91,82,29.85,29.71,22,4,22,1.23
2014-5-13,65.3,55.1,46.2,63.5,49.9,39.6,96,83,67,30.15,29.74,17,4,17,0.02
2014-5-14,56.6,50.3,39.3,41.8,39.2,36.3,91,67,50,30.23,30.04,17,2,17,0.00
2014-5-15,54.9,47.5,39.1,40.5,37.2,33.3,90,69,46,30.05,29.98,22,5,22,0.08
2014-5-16,50.5,44.6,37.6,37.1,33.5,29.4,89,67,46,30.08,30.03,14,2,14,0.00
2014-5-17,60.9,50.1,33.6,38.0,34.1,29.8,87,58,35,30.13,30.06,16,2,16,0.00
2014-5-18,71.6,59.4,45.3,45.1,39.7,34.2,67,49,33,30.16,30.09,15,2,15,0.00
2014-5-19,64.6,56.7,49.5,51.2,46.8,41.6,86,70,55,30.17,29.82,34,6,34,0.16
2014-5-20,84.6,71.5,58.6,68.0,61.0,48.8,89,71,48,29.87,29.75,15,2,15,0.01
2014-5-21,80.5,66.7,57.9,67.9,60.8,56.2,96,83,46,29.85,29.76,15,1,15,0.00
2014-5-25,81.8,76.4,70.7,59.3,56.1,52.0,63,50,37,30.01,29.94,11,1,11,0.00
2014-5-26,70.9,68.8,67.2,61.4,60.1,57.7,78,74,64,29.97,29.94,4,0,4,0.00
2014-5-27,70.0,66.0,62.1,67.7,64.1,60.6,96,94,90,29.95,29.84,19,5,19,0.51
2014-5-28,62.1,59.7,58.0,60.7,55.2,49.7,95,85,72,29.98,29.90,11,2,11,0.00
2014-5-30,65.4,64.2,63.0,55.0,54.7,54.2,73,71,69,30.14,30.13,0,0,0,0.00
2014-5-31,85.5,72.7,54.0,63.4,57.1,50.3,90,61,36,30.16,29.97,16,3,16,0.00
2014-6-1,86.8,75.5,67.7,72.3,65.2,58.0,95,72,56,30.02,29.76,10,2,25,1.67
2014-6-2,79.7,72.7,64.4,69.3,66.3,60.1,96,82,62,29.81,29.68,15,3,18,0.55
2014-6-3,76.0,62.0,61.1,60.3,44.1,-99.9,84,63,50,29.95,29.76,20,-72,20,0.00
2014-6-4,69.0,64.4,57.0,61.2,58.9,54.1,92,83,71,29.92,29.77,10,2,10,0.09
2014-6-5,76.3,65.8,51.7,59.0,53.3,48.4,96,67,42,29.99,29.89,15,2,15,0.00
2014-6-6,81.4,70.7,58.8,60.9,55.8,48.4,85,60,45,29.97,29.90,13,1,13,0.00
2014-6-7,79.2,68.4,59.7,64.7,57.9,50.6,94,70,54,29.96,29.84,22,2,22,0.15
2014-6-8,70.8,63.4,56.7,59.6,54.0,48.4,95,74,48,30.05,29.89,16,4,16,0.00
2014-6-9,75.5,64.1,50.1,60.8,53.0,43.8,86,68,56,30.04,29.91,13,3,13,0.00
2014-6-10,68.9,63.9,58.0,58.2,53.2,47.4,75,68,60,29.95,29.82,13,4,13,0.00
2014-6-11,72.1,64.6,57.4,61.8,57.4,53.8,89,78,67,29.82,29.72,24,5,24,0.00
2014-6-12,74.8,64.1,52.1,64.1,54.6,47.1,97,73,53,29.87,29.71,18,3,18,0.00
2014-6-13,73.2,62.0,51.4,47.6,44.1,38.4,81,54,32,30.00,29.87,22,3,22,0.00
2014-6-14,76.5,66.0,48.9,55.4,50.4,44.6,92,60,40,30.05,29.86,20,4,20,0.00
2014-6-15,82.9,72.2,64.4,67.8,58.9,49.1,77,63,51,29.90,29.68,22,5,22,0.00
2014-6-16,85.7,74.4,57.1,71.0,63.1,54.5,93,70,45,30.00,29.75,14,2,14,0.07
2014-6-17,82.9,74.1,65.9,72.2,67.6,64.2,96,81,61,29.86,29.65,16,2,16,0.76
2014-6-18,76.7,71.0,63.0,71.7,66.3,60.6,95,85,74,30.00,29.77,44,4,44,0.96
2014-6-19,72.7,68.0,63.8,68.4,65.2,62.0,97,91,84,30.09,29.96,14,6,19,0.73
2014-6-20,81.7,72.6,65.7,72.0,68.2,63.6,98,87,64,29.98,29.88,12,2,12,0.85
2014-6-21,79.6,69.9,63.8,71.5,66.6,62.4,98,90,66,29.94,29.82,13,3,13,0.01
2014-6-22,79.6,73.9,68.1,72.2,69.3,66.5,95,86,74,29.87,29.77,11,2,11,0.16
2014-6-23,82.7,72.8,65.8,71.9,68.1,64.6,97,86,63,29.82,29.75,10,1,10,0.09
2014-6-24,83.6,74.6,63.5,69.5,65.8,61.9,97,76,51,29.87,29.80,13,1,13,0.00
2014-6-25,73.1,67.7,63.2,67.6,64.3,60.6,96,89,79,30.02,29.86,12,2,12,0.01
2014-6-26,79.1,69.0,60.3,68.9,63.4,59.0,96,83,67,30.07,29.94,12,3,12,0.00
2014-6-27,83.8,74.8,64.4,73.1,67.4,59.5,89,78,67,29.99,29.84,16,4,16,0.00
2014-6-28,83.4,76.9,70.1,75.4,71.2,67.0,91,83,73,29.94,29.78,20,5,20,0.00
2014-6-29,76.6,69.8,65.2,73.0,66.7,63.5,96,90,78,29.89,29.75,24,2,24,1.49
2014-6-30,85.2,72.4,65.0,77.8,69.1,63.1,96,90,74,29.79,29.52,21,2,21,1.25
2014-7-1,77.5,68.8,62.3,67.5,62.9,58.4,96,82,65,29.74,29.58,21,3,21,0.04
2014-7-2,66.2,61.3,57.4,59.0,56.2,54.1,94,84,73,30.02,29.73,17,3,17,0.00
2014-7-3,74.6,63.7,48.8,55.9,52.2,46.9,95,69,45,30.18,30.02,17,1,17,0.00
2014-7-4,77.7,66.5,52.2,59.6,54.1,48.1,93,68,38,30.29,30.18,9,1,9,0.00
2014-7-5,75.1,67.7,58.9,63.7,59.5,54.9,88,75,64,30.22,29.98,15,2,15,0.00
2014-7-6,80.6,72.8,63.3,74.7,68.0,60.1,92,85,80,29.99,29.64,13,1,13,0.00
2014-7-7,83.3,75.9,66.8,72.5,67.0,63.8,94,75,54,29.72,29.57,18,2,18,0.14
2014-7-8,76.9,69.6,59.8,66.1,61.5,55.9,95,77,53,29.81,29.57,12,3,24,0.21
2014-7-9,74.0,64.8,54.4,59.2,55.1,50.5,94,73,47,30.04,29.81,18,2,18,0.00
2014-7-10,77.7,67.6,51.8,65.1,59.0,49.6,95,75,58,30.14,30.05,10,1,10,0.00
2014-7-11,75.6,70.3,63.5,63.8,61.2,58.6,85,73,61,30.15,30.03,13,2,15,0.00
2014-7-12,77.3,73.3,65.6,74.1,70.4,64.2,96,91,83,29.96,29.80,17,1,17,0.58
2014-7-13,81.1,70.8,59.5,69.8,63.8,56.3,96,80,55,29.91,29.83,17,2,17,0.01
2014-7-14,74.7,63.6,54.6,60.6,54.7,49.8,94,74,51,29.87,29.80,22,2,22,0.09
2014-7-15,65.1,59.0,53.5,58.1,53.3,50.0,92,82,72,29.98,29.85,20,3,20,0.03
2014-7-16,70.7,60.3,47.5,57.5,51.8,45.6,96,75,51,30.04,29.97,16,1,16,0.01
2014-7-17,74.8,63.0,46.9,58.5,52.7,44.7,94,72,46,30.09,30.02,8,0,8,0.00
2014-7-18,78.8,66.8,52.1,64.5,58.6,49.8,95,76,57,30.14,30.04,10,1,10,0.00
2014-7-19,78.0,69.7,57.6,65.9,61.3,54.4,92,75,59,30.06,29.97,10,1,10,0.00
2014-7-20,80.2,70.8,57.3,68.4,63.0,54.4,93,77,65,30.02,29.93,11,1,11,0.00
2014-7-21,84.1,76.0,66.3,73.0,68.3,62.4,88,78,66,30.03,29.95,12,2,12,0.00
2014-7-22,91.2,80.4,72.5,81.4,72.7,64.7,89,78,65,30.00,29.83,17,2,17,0.00
2014-7-23,76.5,68.4,59.2,64.8,59.0,53.1,89,73,57,30.16,30.00,15,3,15,0.00
2014-7-24,76.0,65.9,52.0,61.5,56.0,48.9,92,72,55,30.17,29.97,9,1,9,0.00
2014-7-25,71.2,65.9,61.8,64.1,59.9,54.6,87,81,75,30.03,29.84,13,1,13,0.00
2014-7-26,79.9,71.5,64.3,72.8,66.5,60.7,91,84,78,29.87,29.72,11,1,11,0.00
2014-7-27,76.8,70.0,61.4,68.8,63.3,55.8,96,80,57,29.97,29.71,23,4,23,0.04
2014-7-28,73.1,63.9,54.4,56.9,54.0,51.0,92,72,53,30.12,29.96,16,3,16,0.00
2014-7-29,78.3,66.1,56.8,61.7,57.2,52.4,92,75,50,30.05,29.96,26,2,26,0.02
2014-7-30,76.2,65.0,55.8,62.4,56.7,51.6,94,76,48,30.04,29.98,12,1,12,0.00
2014-7-31,81.2,70.0,56.4,65.7,60.4,51.7,91,73,52,30.00,29.96,14,1,14,0.00
2014-8-1,84.3,67.6,54.6,66.2,59.3,52.0,95,77,50,30.09,29.99,23,1,23,1.24
2014-8-2,83.0,69.0,54.0,69.1,62.1,51.8,96,80,54,30.14,30.06,7,0,7,0.00
2014-8-3,84.8,72.2,59.4,69.5,64.4,57.1,96,78,56,30.11,30.01,13,1,13,0.00
2014-8-4,81.9,67.4,61.1,71.3,63.8,58.6,96,89,66,30.07,29.99,22,1,22,1.46
2014-8-5,77.0,67.7,62.0,68.7,64.0,59.6,97,89,69,30.08,30.01,7,0,7,0.01
2014-8-6,80.5,68.6,55.4,65.4,60.4,53.7,97,77,54,30.08,30.01,6,0,6,0.00
2014-8-7,79.6,68.4,55.7,63.6,58.4,52.6,93,72,53,30.09,30.01,13,2,13,0.00
2014-8-8,80.0,68.6,55.7,65.4,58.5,52.8,92,72,52,30.09,30.03,16,2,16,0.00
2014-8-9,79.2,68.2,58.8,65.5,59.1,53.6,92,74,52,30.12,30.04,13,2,13,0.00
2014-8-10,80.7,68.9,58.2,66.7,61.3,54.9,91,78,59,30.08,29.96,6,1,10,0.00
2014-8-11,81.7,69.6,61.1,71.0,63.1,58.1,92,81,59,29.97,29.75,21,2,21,0.16
2014-8-12,73.5,64.8,55.2,60.7,55.5,50.4,88,73,55,29.97,29.82,26,5,26,0.00
2014-8-13,79.8,66.0,52.2,65.7,57.5,49.1,93,76,54,30.03,29.96,12,2,12,0.00
2014-8-14,64.8,59.4,51.2,55.9,53.0,48.7,92,80,72,30.12,30.11,4,1,7,0.00
2014-8-16,84.0,78.3,70.0,71.6,69.2,65.6,90,74,64,29.89,29.82,9,1,9,0.00
2014-8-17,76.4,68.3,61.7,68.1,62.7,59.5,93,83,66,30.00,29.89,13,3,13,0.00
2014-8-18,82.5,70.8,59.4,72.4,65.0,56.9,94,83,69,29.93,29.68,12,2,12,0.00
2014-8-19,81.2,72.2,63.8,70.2,65.7,60.4,96,81,61,29.75,29.63,16,2,16,0.59
2014-8-20,85.5,72.9,60.0,71.9,65.7,58.1,96,79,58,29.90,29.75,13,1,13,0.00
2014-8-21,76.5,71.1,66.3,73.2,69.0,64.2,97,93,89,29.94,29.83,13,1,13,0.43
2014-8-22,88.1,78.3,71.8,78.4,74.3,70.3,97,88,68,29.92,29.83,8,1,8,0.00
2014-8-23,78.4,75.1,72.6,75.0,73.2,70.1,97,94,84,29.96,29.86,11,2,11,0.03
2014-8-24,84.8,76.8,69.5,77.8,72.8,68.0,95,88,78,29.97,29.88,13,3,13,0.00
2014-8-25,77.8,73.6,67.6,76.3,71.0,65.7,97,92,84,30.04,29.88,31,1,31,1.17
2014-8-26,77.5,69.6,61.5,69.4,62.7,57.9,96,80,58,30.14,29.96,12,1,12,0.00
2014-8-27,76.4,67.0,58.2,63.4,60.2,55.6,94,80,61,30.16,30.07,9,0,9,0.01
2014-8-28,74.7,66.1,56.0,64.3,59.9,54.1,96,81,69,30.13,29.98,15,3,15,0.00
2014-8-29,83.7,74.2,64.1,75.3,69.1,59.8,94,84,72,29.98,29.76,15,3,15,0.00
2014-8-30,78.8,73.4,65.9,71.7,67.9,63.4,95,83,73,29.86,29.75,14,2,14,0.54
2014-8-31,83.5,72.4,60.2,72.5,66.8,58.1,97,84,65,29.90,29.75,12,2,12,0.00
2014-9-1,76.9,70.9,62.2,71.1,65.4,58.6,90,83,74,29.82,29.60,13,1,13,0.04
2014-9-2,77.7,67.2,54.8,64.6,59.2,52.8,96,77,55,29.93,29.81,7,1,10,0.00
2014-9-3,80.5,69.6,53.6,68.8,62.0,51.2,95,78,60,29.99,29.82,14,2,16,0.00
2014-9-4,82.5,74.8,66.5,74.9,70.0,64.4,95,85,74,29.89,29.77,18,2,18,1.22
2014-9-5,78.0,70.7,59.2,74.8,63.4,54.1,92,78,59,30.09,29.79,17,3,19,0.00
2014-9-6,74.3,62.1,51.0,57.3,52.9,48.1,93,74,53,30.18,30.09,14,2,14,0.00
2014-9-7,78.5,63.2,48.4,63.3,54.3,45.7,95,75,45,30.19,30.08,7,0,8,0.00
2014-9-8,74.5,64.8,52.2,60.3,56.6,49.6,95,76,56,30.10,29.93,13,2,13,0.00
2014-9-9,78.2,69.0,60.1,67.1,62.3,55.9,92,80,65,29.94,29.78,10,1,10,0.07
2014-9-10,73.6,63.7,49.3,70.2,60.7,43.9,97,90,82,29.93,29.44,27,5,27,0.35
2014-9-11,53.1,48.6,45.1,45.6,42.9,39.6,90,81,73,30.32,29.93,11,3,19,0.00
2014-9-12,46.4,43.5,36.7,43.5,41.0,34.1,92,91,87,30.41,30.31,12,1,12,0.19
2014-9-13,57.8,46.0,37.1,43.2,39.4,35.0,95,80,53,30.40,30.29,10,1,12,0.00
2014-9-14,66.1,52.8,37.5,51.5,44.9,34.3,93,76,56,30.32,30.13,10,1,12,0.00
2014-9-15,55.7,51.0,42.2,51.6,47.6,39.3,93,88,77,30.20,30.11,10,1,10,0.18
2014-9-16,64.3,50.1,35.0,49.7,42.1,32.9,96,76,52,30.23,30.07,12,1,12,0.00
2014-9-17,70.0,54.1,38.0,53.8,46.3,35.6,95,77,53,30.07,29.96,9,0,9,0.00
2014-9-18,64.1,53.7,45.0,55.8,50.2,42.1,96,88,73,30.19,30.03,11,2,11,0.00
2014-9-19,72.7,62.9,50.6,59.0,55.0,48.7,96,77,55,30.15,29.83,19,3,19,0.00
2014-9-20,76.6,68.1,60.8,67.1,62.2,56.6,93,82,66,29.84,29.67,19,2,20,0.06
2014-9-21,63.4,57.3,47.6,58.7,50.2,42.6,93,78,57,30.17,29.71,22,4,22,0.00
2014-9-22,68.3,53.3,36.3,53.4,45.2,33.6,94,76,55,30.28,30.17,15,1,15,0.00
2014-9-23,73.7,57.3,41.4,57.8,49.1,39.0,96,76,51,30.32,30.23,9,1,10,0.00
2014-9-24,62.9,54.7,49.4,55.3,50.9,46.3,93,87,77,30.33,30.28,9,1,9,0.00
2014-9-27,80.4,72.4,59.0,63.2,59.8,53.6,84,65,52,30.17,30.12,7,0,7,0.00
2014-9-28,81.0,65.2,51.3,64.0,56.6,49.1,95,76,51,30.17,30.03,7,0,7,0.00
2014-9-29,80.7,61.1,48.9,63.9,54.9,46.1,96,82,51,30.05,29.92,18,3,21,0.09
2014-9-30,50.0,46.0,41.6,46.1,42.2,38.0,92,87,79,30.09,30.02,12,3,13,0.00
2014-10-1,68.8,58.4,48.0,57.8,51.8,45.3,93,79,65,30.03,29.84,15,4,15,0.00
2014-10-2,70.0,63.3,57.7,65.9,59.9,54.3,93,89,82,29.85,29.55,9,1,11,0.03
2014-10-3,63.3,50.3,41.2,60.9,44.7,31.1,94,81,65,29.76,29.53,24,5,24,0.65
2014-10-4,46.7,40.8,35.8,39.8,35.1,30.0,93,80,67,29.73,29.63,21,3,21,0.05
2014-10-5,53.0,42.8,30.9,39.1,33.6,27.8,92,71,49,29.72,29.60,14,2,16,0.00
2014-10-6,56.7,49.5,43.9,43.0,38.6,33.7,88,68,44,29.60,29.54,18,1,18,0.00
2014-10-7,63.7,53.3,45.2,47.8,43.0,38.4,84,69,51,29.83,29.55,17,2,17,0.00
2014-10-8,64.0,50.2,37.9,40.9,38.0,33.6,88,65,40,30.04,29.83,17,2,25,0.00
2014-10-9,57.6,45.6,32.7,37.6,33.9,28.8,89,66,40,30.17,30.03,12,1,12,0.00
2014-10-10,56.7,44.8,33.5,39.0,33.6,28.9,89,67,41,30.25,30.16,10,1,10,0.00
2014-10-11,59.7,42.9,28.0,42.9,33.6,24.8,93,72,43,30.29,30.14,11,0,11,0.00
2014-10-12,60.9,50.9,41.5,48.6,41.4,35.6,95,71,48,30.14,29.85,15,3,15,0.02
2014-10-13,60.3,55.0,50.0,56.0,53.2,47.7,97,94,84,29.86,29.48,17,2,17,1.22
2014-10-14,60.4,53.9,50.1,59.7,52.5,47.3,98,95,90,29.73,29.44,17,5,27,0.28
2014-10-15,52.1,50.1,48.3,50.2,48.2,46.4,95,93,90,29.89,29.72,18,4,18,0.01
2014-10-16,65.6,54.6,49.1,53.7,49.7,47.2,94,84,62,29.86,29.56,11,1,11,0.00
2014-10-17,55.7,51.4,46.9,50.0,46.6,41.4,89,84,78,29.92,29.53,20,4,20,0.00
2014-10-18,51.5,44.9,32.4,43.1,38.0,29.2,89,77,59,30.20,29.92,18,3,18,0.00
2014-10-19,56.7,44.5,28.9,46.4,38.8,26.6,96,81,65,30.19,29.82,17,1,17,0.00
2014-10-20,59.5,52.0,40.8,47.1,44.0,37.5,93,75,59,30.03,29.78,22,4,22,0.00
2014-10-21,49.3,43.6,30.9,42.0,37.8,27.9,95,80,72,30.30,30.03,15,2,15,0.00
2014-10-22,57.2,41.9,26.5,44.0,35.2,24.2,95,79,54,30.39,30.23,13,2,13,0.00
2014-10-23,51.7,47.1,40.8,48.9,43.5,36.9,95,87,74,30.23,30.03,12,2,12,0.13
2014-10-24,59.9,52.8,48.1,54.5,50.2,47.0,97,91,80,30.06,29.88,10,1,10,0.00
2014-10-25,67.3,57.8,48.3,56.2,43.2,30.9,95,63,29,29.98,29.87,26,3,26,0.00
2014-10-26,61.6,49.8,32.5,40.4,34.0,27.3,84,57,34,30.04,29.79,10,2,10,0.01
2014-10-27,73.9,63.3,51.5,63.0,53.2,37.0,82,70,53,29.79,29.49,13,3,13,0.00
2014-10-28,64.4,50.6,44.9,58.8,41.3,34.8,83,71,60,29.92,29.55,22,5,22,0.00
2014-10-29,47.7,41.8,30.8,35.8,33.1,26.8,88,71,62,30.15,29.92,19,4,19,0.00
2014-10-30,50.1,40.8,30.5,40.3,34.8,27.2,92,80,65,30.14,30.07,23,1,23,0.00
2014-10-31,43.8,34.6,27.8,33.8,24.5,19.3,89,67,50,30.49,30.09,31,8,31,0.00
2014-11-1,41.3,31.2,23.7,29.1,22.8,17.8,85,71,57,30.54,30.40,11,1,11,0.00
2014-11-2,52.1,42.6,32.7,33.8,29.5,26.6,82,62,41,30.40,30.10,19,4,19,0.00
2014-11-3,58.6,50.6,41.4,54.0,39.1,28.1,92,65,55,30.11,29.82,15,1,15,0.17
2014-11-4,59.0,49.2,42.0,56.3,42.0,32.8,93,77,58,30.03,29.75,25,4,25,0.00
2014-11-5,52.4,44.2,33.9,43.4,37.3,29.1,88,77,64,30.12,29.80,13,2,13,0.04
2014-11-6,45.6,38.6,33.5,42.0,32.8,26.7,91,80,67,30.27,29.79,28,6,28,0.02
2014-11-7,42.7,37.2,27.8,35.5,29.2,23.6,87,73,59,30.24,29.75,19,2,19,0.02
2014-11-8,44.8,40.0,34.1,38.4,30.5,24.6,87,69,53,29.96,29.71,24,5,24,0.02
2014-11-9,49.2,41.3,35.3,35.9,32.4,26.8,90,71,58,29.92,29.73,17,3,17,0.01
2014-11-10,56.1,43.2,34.7,45.7,39.0,32.3,94,86,67,29.85,29.47,18,6,18,0.01
2014-11-11,39.6,32.9,24.7,37.1,28.1,16.6,93,83,69,30.19,29.61,26,8,26,0.04
2014-11-12,26.6,23.5,20.3,18.3,16.1,13.2,78,73,68,30.34,30.19,18,5,18,0.00
2014-11-13,27.8,24.4,22.4,20.1,17.2,14.9,85,74,63,30.36,30.31,17,5,21,0.00
2014-11-14,25.4,20.7,11.4,17.6,13.8,7.1,83,75,62,30.42,30.34,7,2,11,0.00
2014-11-15,26.7,18.5,8.1,18.7,12.8,4.3,88,79,57,30.42,30.24,10,1,10,0.00
2014-11-16,27.2,21.0,8.8,23.0,16.8,3.8,90,84,76,30.24,29.92,14,2,14,0.03
2014-11-17,15.5,11.0,5.4,7.8,5.0,0.9,86,77,65,30.00,29.86,20,4,20,0.00
2014-11-18,17.0,13.4,7.9,10.7,6.3,2.8,81,73,65,30.11,29.98,19,4,19,0.00
2014-11-19,26.2,21.1,16.9,18.6,14.2,10.6,84,74,64,30.02,29.80,25,5,25,0.00
2014-11-20,23.2,16.4,3.7,12.9,5.9,-3.1,82,64,42,30.38,29.98,24,4,24,0.00
2014-11-21,32.2,19.2,1.1,22.5,7.9,-3.9,86,63,48,30.47,30.14,17,2,17,0.00
2014-11-22,47.4,38.7,30.7,46.3,36.5,22.3,96,92,70,30.14,29.75,12,1,12,0.01
2014-11-23,48.2,46.8,45.6,48.2,45.9,44.6,100,96,94,29.76,29.11,15,3,15,0.62
2014-11-24,45.6,32.6,20.9,44.8,31.1,18.2,97,94,89,29.81,29.06,22,5,22,0.03
2014-11-25,23.1,18.7,9.0,19.0,15.4,6.2,92,87,82,30.23,29.81,15,2,15,0.00
2014-11-26,22.0,15.7,7.7,19.8,13.3,4.9,93,90,88,30.31,30.18,8,1,8,0.00
2014-11-27,22.8,16.2,4.1,20.4,11.7,-0.5,93,82,71,30.48,30.30,17,3,17,0.00
2014-11-28,27.7,21.2,11.3,25.3,16.9,7.8,92,83,75,30.42,29.89,18,4,18,0.00
2014-12-6,26.8,23.4,21.7,19.3,17.9,16.0,84,80,73,30.72,30.69,10,1,10,0.00
2014-12-7,34.2,27.1,15.4,27.1,20.6,12.2,93,77,57,30.70,30.26,18,4,18,0.00
2014-12-8,34.2,32.7,31.1,32.9,30.9,27.1,95,93,85,30.26,29.97,17,2,17,0.27
2014-12-9,34.3,31.0,27.5,29.8,27.5,24.1,92,87,81,30.45,30.18,12,4,18,0.01
2014-12-10,27.5,24.5,22.4,24.3,21.3,19.3,88,87,86,30.48,30.34,11,2,11,0.00
2014-12-11,30.4,24.1,21.1,25.2,21.0,18.6,98,88,80,30.34,30.26,15,2,15,0.00
2014-12-12,35.4,31.5,24.4,33.8,29.7,22.2,95,93,91,30.36,30.24,10,2,16,0.00
2014-12-13,43.8,38.3,31.2,42.8,37.2,29.7,97,95,94,30.24,30.07,5,0,8,0.00
2014-12-14,44.9,43.2,41.0,44.4,42.5,40.2,98,98,97,30.08,29.94,9,1,9,0.01
2014-12-15,44.6,43.4,41.7,44.3,43.0,41.2,99,98,98,29.95,29.66,15,3,15,0.20
2014-12-16,42.4,34.6,24.7,41.9,32.0,19.8,98,90,77,30.19,29.65,26,6,29,0.10
2014-12-17,24.7,22.5,17.7,19.8,17.1,13.7,84,79,76,30.37,30.18,20,5,20,0.00
2014-12-18,26.7,22.7,15.1,24.6,19.2,11.9,92,86,84,30.37,30.29,7,1,7,0.00
2014-12-19,26.2,25.4,23.4,23.9,21.8,20.3,92,86,84,30.37,30.29,7,0,7,0.00
2014-12-20,30.1,28.2,25.8,27.7,25.5,22.7,92,90,88,30.33,30.23,10,2,10,0.00
2014-12-21,35.9,33.5,30.1,33.3,31.3,27.5,96,91,87,30.24,29.96,17,5,17,0.00
2014-12-22,38.1,34.9,33.0,37.3,32.8,30.8,97,92,83,29.96,29.59,23,7,23,0.14
2014-12-23,41.5,39.0,36.2,41.0,38.0,35.2,98,96,93,29.76,29.51,17,2,17,0.29
2014-12-24,36.2,34.6,33.9,35.1,33.4,31.8,97,95,92,29.74,29.52,13,2,13,0.01
2014-12-25,40.7,35.9,31.2,35.3,32.0,27.8,92,86,79,29.96,29.65,16,3,16,0.00
2014-12-26,45.3,37.9,32.4,38.6,34.4,29.5,94,87,76,30.03,29.92,7,1,11,0.00
2014-12-27,44.6,35.0,27.4,43.8,32.3,21.9,98,90,79,30.14,29.85,21,4,21,0.04
2014-12-28,28.7,27.2,23.3,22.5,21.4,17.7,82,79,75,30.33,30.25,13,3,13,0.00
2014-12-29,23.3,18.4,7.1,17.3,10.8,1.5,83,72,58,30.64,30.32,16,4,16,0.00
2014-12-30,13.8,7.6,2.7,1.6,-3.3,-6.5,78,62,42,30.79,30.64,15,4,15,0.00
2014-12-31,18.2,9.5,-1.6,8.5,0.5,-6.8,79,67,50,30.68,30.10,25,5,25,0.00
2015-1-1,30.5,21.1,11.8,20.4,13.8,5.9,80,73,62,30.17,29.94,12,3,15,0.00
2015-1-2,29.8,24.9,17.9,22.8,18.2,11.9,87,76,61,30.35,30.17,9,1,9,0.00